sensor_id;sensor_type;location;lat;lon;timestamp;temperature;humidity
15625;DHT22;7912;51.376;6.126;2023-12-20T00:02:21;10.80;99.90
15625;DHT22;7912;51.376;6.126;2023-12-20T00:04:48;10.80;99.90
15625;DHT22;7912;51.376;6.126;2023-12-20T00:07:17;10.70;99.90
15625;DHT22;7912;51.376;6.126;2023-12-20T00:09:45;10.70;99.90
15625;DHT22;7912;51.376;6.126;2023-12-20T00:12:12;10.70;99.90
15625;DHT22;7912;51.376;6.126;2023-12-20T00:14:39;10.70;99.90
15625;DHT22;7912;51.376;6.126;2023-12-20T00:17:07;10.70;99.90
15625;DHT22;7912;51.376;6.126;2023-12-20T00:19:34;10.60;99.90
15625;DHT22;7912;51.376;6.126;2023-12-20T00:22:02;10.60;99.90
15625;DHT22;7912;51.376;6.126;2023-12-20T00:24:29;10.60;99.90
15625;DHT22;7912;51.376;6.126;2023-12-20T00:26:56;10.50;99.90
15625;DHT22;7912;51.376;6.126;2023-12-20T00:29:24;10.50;99.90
15625;DHT22;7912;51.376;6.126;2023-12-20T00:31:51;10.50;99.90
15625;DHT22;7912;51.376;6.126;2023-12-20T00:34:18;10.50;99.90
15625;DHT22;7912;51.376;6.126;2023-12-20T00:36:46;10.50;99.90
15625;DHT22;7912;51.376;6.126;2023-12-20T00:39:13;10.50;99.90
15625;DHT22;7912;51.376;6.126;2023-12-20T00:41:40;10.50;99.90
15625;DHT22;7912;51.376;6.126;2023-12-20T00:44:08;10.50;99.90
15625;DHT22;7912;51.376;6.126;2023-12-20T00:46:35;10.50;99.90
15625;DHT22;7912;51.376;6.126;2023-12-20T00:49:02;10.40;99.90
15625;DHT22;7912;51.376;6.126;2023-12-20T00:51:30;10.40;99.90
15625;DHT22;7912;51.376;6.126;2023-12-20T00:53:59;10.40;99.90
15625;DHT22;7912;51.376;6.126;2023-12-20T00:56:27;10.40;99.90
15625;DHT22;7912;51.376;6.126;2023-12-20T00:58:54;10.40;99.90
15625;DHT22;7912;51.376;6.126;2023-12-20T01:01:22;10.30;99.90
15625;DHT22;7912;51.376;6.126;2023-12-20T01:03:49;10.30;99.90
15625;DHT22;7912;51.376;6.126;2023-12-20T01:06:18;10.30;99.90
15625;DHT22;7912;51.376;6.126;2023-12-20T01:08:46;10.20;99.90
15625;DHT22;7912;51.376;6.126;2023-12-20T01:11:13;10.20;99.90
15625;DHT22;7912;51.376;6.126;2023-12-20T01:13:40;10.20;99.90
15625;DHT22;7912;51.376;6.126;2023-12-20T01:16:10;10.10;99.90
15625;DHT22;7912;51.376;6.126;2023-12-20T01:18:39;10.10;99.90
15625;DHT22;7912;51.376;6.126;2023-12-20T01:21:06;10.10;99.90
15625;DHT22;7912;51.376;6.126;2023-12-20T01:23:33;10.00;99.90
15625;DHT22;7912;51.376;6.126;2023-12-20T01:26:01;10.00;99.90
15625;DHT22;7912;51.376;6.126;2023-12-20T01:28:29;9.90;99.90
15625;DHT22;7912;51.376;6.126;2023-12-20T01:30:57;9.90;99.90
15625;DHT22;7912;51.376;6.126;2023-12-20T01:33:25;9.80;99.90
15625;DHT22;7912;51.376;6.126;2023-12-20T01:35:52;9.70;99.90
15625;DHT22;7912;51.376;6.126;2023-12-20T01:38:19;9.70;99.90
15625;DHT22;7912;51.376;6.126;2023-12-20T01:40:49;9.60;99.90
15625;DHT22;7912;51.376;6.126;2023-12-20T01:43:16;9.60;99.90
15625;DHT22;7912;51.376;6.126;2023-12-20T01:45:43;9.50;99.90
15625;DHT22;7912;51.376;6.126;2023-12-20T01:48:11;9.50;99.90
15625;DHT22;7912;51.376;6.126;2023-12-20T01:54:05;9.40;99.90
15625;DHT22;7912;51.376;6.126;2023-12-20T02:00:57;9.30;99.90
15625;DHT22;7912;51.376;6.126;2023-12-20T02:03:25;9.20;99.90
15625;DHT22;7912;51.376;6.126;2023-12-20T02:05:53;9.20;99.90
15625;DHT22;7912;51.376;6.126;2023-12-20T02:08:20;9.20;99.90
15625;DHT22;7912;51.376;6.126;2023-12-20T02:10:48;9.10;99.90
15625;DHT22;7912;51.376;6.126;2023-12-20T02:13:18;9.10;99.90
15625;DHT22;7912;51.376;6.126;2023-12-20T02:15:46;9.00;99.90
15625;DHT22;7912;51.376;6.126;2023-12-20T02:18:13;9.00;99.90
15625;DHT22;7912;51.376;6.126;2023-12-20T02:20:44;8.90;99.90
15625;DHT22;7912;51.376;6.126;2023-12-20T02:23:11;8.90;99.90
15625;DHT22;7912;51.376;6.126;2023-12-20T02:25:39;8.90;99.90
15625;DHT22;7912;51.376;6.126;2023-12-20T02:28:06;8.80;99.90
15625;DHT22;7912;51.376;6.126;2023-12-20T02:30:33;8.80;99.90
15625;DHT22;7912;51.376;6.126;2023-12-20T02:33:03;8.80;99.90
15625;DHT22;7912;51.376;6.126;2023-12-20T02:35:35;8.70;99.90
15625;DHT22;7912;51.376;6.126;2023-12-20T02:38:02;8.70;99.90
15625;DHT22;7912;51.376;6.126;2023-12-20T02:40:30;8.70;99.90
15625;DHT22;7912;51.376;6.126;2023-12-20T02:42:58;8.70;99.90
15625;DHT22;7912;51.376;6.126;2023-12-20T02:45:27;8.60;99.90
15625;DHT22;7912;51.376;6.126;2023-12-20T02:47:54;8.60;99.90
15625;DHT22;7912;51.376;6.126;2023-12-20T02:50:22;8.60;99.90
15625;DHT22;7912;51.376;6.126;2023-12-20T02:52:49;8.60;99.90
15625;DHT22;7912;51.376;6.126;2023-12-20T02:55:16;8.60;99.90
15625;DHT22;7912;51.376;6.126;2023-12-20T02:57:44;8.50;99.90
15625;DHT22;7912;51.376;6.126;2023-12-20T03:00:15;8.50;99.90
15625;DHT22;7912;51.376;6.126;2023-12-20T03:02:42;8.50;99.90
15625;DHT22;7912;51.376;6.126;2023-12-20T03:05:13;8.50;99.90
15625;DHT22;7912;51.376;6.126;2023-12-20T03:07:40;8.50;99.90
15625;DHT22;7912;51.376;6.126;2023-12-20T03:10:08;8.40;99.90
15625;DHT22;7912;51.376;6.126;2023-12-20T03:12:46;8.40;99.90
15625;DHT22;7912;51.376;6.126;2023-12-20T03:15:13;8.40;99.90
15625;DHT22;7912;51.376;6.126;2023-12-20T03:17:44;8.40;99.90
15625;DHT22;7912;51.376;6.126;2023-12-20T03:20:12;8.40;99.90
15625;DHT22;7912;51.376;6.126;2023-12-20T03:22:40;8.40;99.90
15625;DHT22;7912;51.376;6.126;2023-12-20T03:25:08;8.40;99.90
15625;DHT22;7912;51.376;6.126;2023-12-20T03:27:37;8.40;99.90
15625;DHT22;7912;51.376;6.126;2023-12-20T03:30:10;8.40;99.90
15625;DHT22;7912;51.376;6.126;2023-12-20T03:32:38;8.40;99.90
15625;DHT22;7912;51.376;6.126;2023-12-20T03:35:06;8.40;99.90
15625;DHT22;7912;51.376;6.126;2023-12-20T03:37:33;8.40;99.90
15625;DHT22;7912;51.376;6.126;2023-12-20T03:40:03;8.40;99.90
15625;DHT22;7912;51.376;6.126;2023-12-20T03:42:30;8.40;99.90
15625;DHT22;7912;51.376;6.126;2023-12-20T03:44:58;8.40;99.90
15625;DHT22;7912;51.376;6.126;2023-12-20T03:47:25;8.40;99.90
15625;DHT22;7912;51.376;6.126;2023-12-20T03:49:53;8.40;99.90
15625;DHT22;7912;51.376;6.126;2023-12-20T03:52:20;8.40;99.90
15625;DHT22;7912;51.376;6.126;2023-12-20T03:54:48;8.40;99.90
15625;DHT22;7912;51.376;6.126;2023-12-20T03:57:16;8.40;99.90
15625;DHT22;7912;51.376;6.126;2023-12-20T03:59:43;8.40;99.90
15625;DHT22;7912;51.376;6.126;2023-12-20T04:02:11;8.40;99.90
15625;DHT22;7912;51.376;6.126;2023-12-20T04:04:38;8.40;99.90
15625;DHT22;7912;51.376;6.126;2023-12-20T04:07:06;8.40;99.90
15625;DHT22;7912;51.376;6.126;2023-12-20T04:09:33;8.40;99.90
15625;DHT22;7912;51.376;6.126;2023-12-20T04:12:00;8.40;99.90
15625;DHT22;7912;51.376;6.126;2023-12-20T04:14:29;8.40;99.90
15625;DHT22;7912;51.376;6.126;2023-12-20T04:16:57;8.50;99.90
15625;DHT22;7912;51.376;6.126;2023-12-20T04:19:24;8.50;99.90
15625;DHT22;7912;51.376;6.126;2023-12-20T04:21:52;8.50;99.90
15625;DHT22;7912;51.376;6.126;2023-12-20T04:24:19;8.60;99.90
15625;DHT22;7912;51.376;6.126;2023-12-20T04:26:46;8.60;99.90
15625;DHT22;7912;51.376;6.126;2023-12-20T04:29:14;8.60;99.90
15625;DHT22;7912;51.376;6.126;2023-12-20T04:31:41;8.60;99.90
15625;DHT22;7912;51.376;6.126;2023-12-20T04:34:14;8.60;99.90
15625;DHT22;7912;51.376;6.126;2023-12-20T04:36:41;8.70;99.90
15625;DHT22;7912;51.376;6.126;2023-12-20T04:39:10;8.70;99.90
15625;DHT22;7912;51.376;6.126;2023-12-20T04:41:38;8.70;99.90
15625;DHT22;7912;51.376;6.126;2023-12-20T04:44:06;8.70;99.90
15625;DHT22;7912;51.376;6.126;2023-12-20T04:46:33;8.70;99.90
15625;DHT22;7912;51.376;6.126;2023-12-20T04:49:00;8.70;99.90
15625;DHT22;7912;51.376;6.126;2023-12-20T04:51:28;8.70;99.90
15625;DHT22;7912;51.376;6.126;2023-12-20T04:53:55;8.80;99.90
15625;DHT22;7912;51.376;6.126;2023-12-20T04:56:23;8.80;99.90
15625;DHT22;7912;51.376;6.126;2023-12-20T04:58:51;8.80;99.90
15625;DHT22;7912;51.376;6.126;2023-12-20T05:01:20;8.80;99.90
15625;DHT22;7912;51.376;6.126;2023-12-20T05:03:48;8.80;99.90
15625;DHT22;7912;51.376;6.126;2023-12-20T05:06:15;8.90;99.90
15625;DHT22;7912;51.376;6.126;2023-12-20T05:08:43;8.90;99.90
15625;DHT22;7912;51.376;6.126;2023-12-20T05:11:10;8.90;99.90
15625;DHT22;7912;51.376;6.126;2023-12-20T05:13:40;8.90;99.90
15625;DHT22;7912;51.376;6.126;2023-12-20T05:16:15;9.00;99.90
15625;DHT22;7912;51.376;6.126;2023-12-20T05:18:45;9.00;99.90
15625;DHT22;7912;51.376;6.126;2023-12-20T05:21:17;9.00;99.90
15625;DHT22;7912;51.376;6.126;2023-12-20T05:24:05;9.00;99.90
15625;DHT22;7912;51.376;6.126;2023-12-20T05:30:32;9.10;99.90
15625;DHT22;7912;51.376;6.126;2023-12-20T05:32:59;9.20;99.90
15625;DHT22;7912;51.376;6.126;2023-12-20T05:35:27;9.20;99.90
15625;DHT22;7912;51.376;6.126;2023-12-20T05:37:54;9.20;99.90
15625;DHT22;7912;51.376;6.126;2023-12-20T05:40:21;9.20;99.90
15625;DHT22;7912;51.376;6.126;2023-12-20T05:42:49;9.20;99.90
15625;DHT22;7912;51.376;6.126;2023-12-20T05:45:16;9.20;99.90
15625;DHT22;7912;51.376;6.126;2023-12-20T05:47:43;9.30;99.90
15625;DHT22;7912;51.376;6.126;2023-12-20T05:50:11;9.30;99.90
15625;DHT22;7912;51.376;6.126;2023-12-20T05:52:38;9.30;99.90
15625;DHT22;7912;51.376;6.126;2023-12-20T05:55:06;9.30;99.90
15625;DHT22;7912;51.376;6.126;2023-12-20T05:57:34;9.30;99.90
15625;DHT22;7912;51.376;6.126;2023-12-20T06:00:02;9.30;99.90
15625;DHT22;7912;51.376;6.126;2023-12-20T06:02:32;9.40;99.90
15625;DHT22;7912;51.376;6.126;2023-12-20T06:04:59;9.40;99.90
15625;DHT22;7912;51.376;6.126;2023-12-20T06:07:27;9.40;99.90
15625;DHT22;7912;51.376;6.126;2023-12-20T06:09:54;9.40;99.90
15625;DHT22;7912;51.376;6.126;2023-12-20T06:12:21;9.40;99.90
15625;DHT22;7912;51.376;6.126;2023-12-20T06:14:49;9.40;99.90
15625;DHT22;7912;51.376;6.126;2023-12-20T06:17:16;9.40;99.90
15625;DHT22;7912;51.376;6.126;2023-12-20T06:19:43;9.40;99.90
15625;DHT22;7912;51.376;6.126;2023-12-20T06:22:12;9.40;99.90
15625;DHT22;7912;51.376;6.126;2023-12-20T06:24:39;9.50;99.90
15625;DHT22;7912;51.376;6.126;2023-12-20T06:27:06;9.50;99.90
15625;DHT22;7912;51.376;6.126;2023-12-20T06:29:34;9.50;99.90
15625;DHT22;7912;51.376;6.126;2023-12-20T06:32:01;9.50;99.90
15625;DHT22;7912;51.376;6.126;2023-12-20T06:34:29;9.50;99.90
15625;DHT22;7912;51.376;6.126;2023-12-20T06:36:56;9.50;99.90
15625;DHT22;7912;51.376;6.126;2023-12-20T06:39:24;9.50;99.90
15625;DHT22;7912;51.376;6.126;2023-12-20T06:41:51;9.50;99.90
15625;DHT22;7912;51.376;6.126;2023-12-20T06:44:18;9.50;99.90
15625;DHT22;7912;51.376;6.126;2023-12-20T06:46:45;9.60;99.90
15625;DHT22;7912;51.376;6.126;2023-12-20T06:49:13;9.60;99.90
15625;DHT22;7912;51.376;6.126;2023-12-20T06:51:40;9.60;99.90
15625;DHT22;7912;51.376;6.126;2023-12-20T06:54:08;9.60;99.90
15625;DHT22;7912;51.376;6.126;2023-12-20T06:56:35;9.60;99.90
15625;DHT22;7912;51.376;6.126;2023-12-20T06:59:02;9.60;99.90
15625;DHT22;7912;51.376;6.126;2023-12-20T07:01:35;9.70;99.90
15625;DHT22;7912;51.376;6.126;2023-12-20T07:04:03;9.70;99.90
15625;DHT22;7912;51.376;6.126;2023-12-20T07:06:30;9.70;99.90
15625;DHT22;7912;51.376;6.126;2023-12-20T07:08:58;9.70;99.90
15625;DHT22;7912;51.376;6.126;2023-12-20T07:11:25;9.70;99.90
15625;DHT22;7912;51.376;6.126;2023-12-20T07:13:56;9.70;99.90
15625;DHT22;7912;51.376;6.126;2023-12-20T07:16:23;9.70;99.90
15625;DHT22;7912;51.376;6.126;2023-12-20T07:18:52;9.70;99.90
15625;DHT22;7912;51.376;6.126;2023-12-20T07:21:20;9.70;99.90
15625;DHT22;7912;51.376;6.126;2023-12-20T07:23:48;9.70;99.90
15625;DHT22;7912;51.376;6.126;2023-12-20T07:26:35;9.70;99.90
15625;DHT22;7912;51.376;6.126;2023-12-20T07:29:04;9.70;99.90
15625;DHT22;7912;51.376;6.126;2023-12-20T07:31:32;9.70;99.90
15625;DHT22;7912;51.376;6.126;2023-12-20T07:33:59;9.70;99.90
15625;DHT22;7912;51.376;6.126;2023-12-20T07:36:27;9.70;99.90
15625;DHT22;7912;51.376;6.126;2023-12-20T07:38:54;9.70;99.90
15625;DHT22;7912;51.376;6.126;2023-12-20T07:41:21;9.60;99.90
15625;DHT22;7912;51.376;6.126;2023-12-20T07:43:50;9.60;99.90
15625;DHT22;7912;51.376;6.126;2023-12-20T07:46:18;9.60;99.90
15625;DHT22;7912;51.376;6.126;2023-12-20T07:48:51;9.60;99.90
15625;DHT22;7912;51.376;6.126;2023-12-20T07:51:19;9.60;99.90
15625;DHT22;7912;51.376;6.126;2023-12-20T07:53:48;9.60;99.90
15625;DHT22;7912;51.376;6.126;2023-12-20T07:56:16;9.50;99.90
15625;DHT22;7912;51.376;6.126;2023-12-20T07:58:45;9.50;99.90
15625;DHT22;7912;51.376;6.126;2023-12-20T08:01:19;9.50;99.90
15625;DHT22;7912;51.376;6.126;2023-12-20T08:03:49;9.50;99.90
15625;DHT22;7912;51.376;6.126;2023-12-20T08:06:17;9.50;99.90
15625;DHT22;7912;51.376;6.126;2023-12-20T08:09:03;9.50;99.90
15625;DHT22;7912;51.376;6.126;2023-12-20T08:11:32;9.50;99.90
15625;DHT22;7912;51.376;6.126;2023-12-20T08:14:00;9.50;99.90
15625;DHT22;7912;51.376;6.126;2023-12-20T08:16:27;9.50;99.90
15625;DHT22;7912;51.376;6.126;2023-12-20T08:18:54;9.50;99.90
15625;DHT22;7912;51.376;6.126;2023-12-20T08:21:22;9.50;99.90
15625;DHT22;7912;51.376;6.126;2023-12-20T08:23:50;9.50;99.90
15625;DHT22;7912;51.376;6.126;2023-12-20T08:26:19;9.50;99.90
15625;DHT22;7912;51.376;6.126;2023-12-20T08:28:50;9.50;99.90
15625;DHT22;7912;51.376;6.126;2023-12-20T08:31:18;9.50;99.90
15625;DHT22;7912;51.376;6.126;2023-12-20T08:33:47;9.50;99.90
15625;DHT22;7912;51.376;6.126;2023-12-20T08:36:15;9.50;99.90
15625;DHT22;7912;51.376;6.126;2023-12-20T08:38:44;9.50;99.90
15625;DHT22;7912;51.376;6.126;2023-12-20T08:41:11;9.50;99.90
15625;DHT22;7912;51.376;6.126;2023-12-20T08:43:39;9.60;99.90
15625;DHT22;7912;51.376;6.126;2023-12-20T08:46:07;9.60;99.90
15625;DHT22;7912;51.376;6.126;2023-12-20T08:48:36;9.60;99.90
15625;DHT22;7912;51.376;6.126;2023-12-20T08:51:04;9.60;99.90
15625;DHT22;7912;51.376;6.126;2023-12-20T08:53:35;9.70;99.90
15625;DHT22;7912;51.376;6.126;2023-12-20T08:56:03;9.70;99.90
15625;DHT22;7912;51.376;6.126;2023-12-20T08:58:32;9.70;99.90
15625;DHT22;7912;51.376;6.126;2023-12-20T09:01:03;9.70;99.90
15625;DHT22;7912;51.376;6.126;2023-12-20T09:09:52;9.80;99.90
15625;DHT22;7912;51.376;6.126;2023-12-20T09:12:20;9.90;99.90
15625;DHT22;7912;51.376;6.126;2023-12-20T09:14:49;9.90;99.90
15625;DHT22;7912;51.376;6.126;2023-12-20T09:25:37;10.00;99.90
15625;DHT22;7912;51.376;6.126;2023-12-20T09:28:04;10.10;99.90
15625;DHT22;7912;51.376;6.126;2023-12-20T09:30:32;10.10;99.90
15625;DHT22;7912;51.376;6.126;2023-12-20T09:33:00;10.10;99.90
15625;DHT22;7912;51.376;6.126;2023-12-20T09:35:28;10.20;99.90
15625;DHT22;7912;51.376;6.126;2023-12-20T09:37:55;10.20;99.90
15625;DHT22;7912;51.376;6.126;2023-12-20T09:40:26;10.20;99.90
15625;DHT22;7912;51.376;6.126;2023-12-20T09:42:58;10.20;99.90
15625;DHT22;7912;51.376;6.126;2023-12-20T09:45:31;10.30;99.90
15625;DHT22;7912;51.376;6.126;2023-12-20T09:47:59;10.30;99.90
15625;DHT22;7912;51.376;6.126;2023-12-20T09:50:27;10.30;99.90
15625;DHT22;7912;51.376;6.126;2023-12-20T09:52:58;10.40;99.90
15625;DHT22;7912;51.376;6.126;2023-12-20T09:55:28;10.40;99.90
15625;DHT22;7912;51.376;6.126;2023-12-20T09:57:57;10.40;99.90
15625;DHT22;7912;51.376;6.126;2023-12-20T10:00:26;10.40;99.90
15625;DHT22;7912;51.376;6.126;2023-12-20T10:02:58;10.40;99.90
15625;DHT22;7912;51.376;6.126;2023-12-20T10:05:31;10.40;99.90
15625;DHT22;7912;51.376;6.126;2023-12-20T10:08:00;10.40;99.90
15625;DHT22;7912;51.376;6.126;2023-12-20T10:10:29;10.40;99.90
15625;DHT22;7912;51.376;6.126;2023-12-20T10:13:12;10.40;99.90
15625;DHT22;7912;51.376;6.126;2023-12-20T10:15:40;10.50;99.90
15625;DHT22;7912;51.376;6.126;2023-12-20T10:18:09;10.50;99.90
15625;DHT22;7912;51.376;6.126;2023-12-20T10:20:40;10.50;99.90
15625;DHT22;7912;51.376;6.126;2023-12-20T10:23:10;10.50;99.90
15625;DHT22;7912;51.376;6.126;2023-12-20T10:25:39;10.50;99.90
15625;DHT22;7912;51.376;6.126;2023-12-20T10:28:16;10.50;99.90
15625;DHT22;7912;51.376;6.126;2023-12-20T10:30:50;10.60;99.90
15625;DHT22;7912;51.376;6.126;2023-12-20T10:33:28;10.60;99.90
15625;DHT22;7912;51.376;6.126;2023-12-20T10:35:58;10.60;99.90
15625;DHT22;7912;51.376;6.126;2023-12-20T10:38:25;10.60;99.90
15625;DHT22;7912;51.376;6.126;2023-12-20T10:40:57;10.60;99.90
15625;DHT22;7912;51.376;6.126;2023-12-20T10:43:27;10.70;99.90
15625;DHT22;7912;51.376;6.126;2023-12-20T10:45:56;10.70;99.90
15625;DHT22;7912;51.376;6.126;2023-12-20T10:48:25;10.70;99.90
15625;DHT22;7912;51.376;6.126;2023-12-20T10:50:57;10.70;99.90
15625;DHT22;7912;51.376;6.126;2023-12-20T10:53:25;10.70;99.90
15625;DHT22;7912;51.376;6.126;2023-12-20T10:55:55;10.70;99.90
15625;DHT22;7912;51.376;6.126;2023-12-20T10:58:26;10.70;99.90
15625;DHT22;7912;51.376;6.126;2023-12-20T11:01:00;10.70;99.90
15625;DHT22;7912;51.376;6.126;2023-12-20T11:03:37;10.80;99.90
15625;DHT22;7912;51.376;6.126;2023-12-20T11:06:30;10.80;99.90
15625;DHT22;7912;51.376;6.126;2023-12-20T11:09:38;10.80;99.90
15625;DHT22;7912;51.376;6.126;2023-12-20T11:12:16;10.80;99.90
15625;DHT22;7912;51.376;6.126;2023-12-20T11:14:53;10.80;99.90
15625;DHT22;7912;51.376;6.126;2023-12-20T11:17:27;10.90;99.90
15625;DHT22;7912;51.376;6.126;2023-12-20T11:22:29;10.90;99.90
15625;DHT22;7912;51.376;6.126;2023-12-20T11:25:09;11.00;99.90
15625;DHT22;7912;51.376;6.126;2023-12-20T11:27:42;11.00;99.90
15625;DHT22;7912;51.376;6.126;2023-12-20T11:30:12;11.00;99.90
15625;DHT22;7912;51.376;6.126;2023-12-20T11:32:41;11.10;99.90
15625;DHT22;7912;51.376;6.126;2023-12-20T11:37:40;11.10;99.90
15625;DHT22;7912;51.376;6.126;2023-12-20T11:40:16;11.20;99.90
15625;DHT22;7912;51.376;6.126;2023-12-20T11:42:54;11.20;99.90
15625;DHT22;7912;51.376;6.126;2023-12-20T11:45:24;11.20;99.90
15625;DHT22;7912;51.376;6.126;2023-12-20T11:47:56;11.20;99.90
15625;DHT22;7912;51.376;6.126;2023-12-20T11:50:25;11.20;99.90
15625;DHT22;7912;51.376;6.126;2023-12-20T11:52:54;11.10;99.90
15625;DHT22;7912;51.376;6.126;2023-12-20T11:55:23;11.10;99.90
15625;DHT22;7912;51.376;6.126;2023-12-20T11:57:51;11.10;99.90
15625;DHT22;7912;51.376;6.126;2023-12-20T12:00:19;11.10;99.90
15625;DHT22;7912;51.376;6.126;2023-12-20T12:02:57;11.10;99.90
15625;DHT22;7912;51.376;6.126;2023-12-20T12:05:30;11.10;99.90
15625;DHT22;7912;51.376;6.126;2023-12-20T12:07:59;11.10;99.90
15625;DHT22;7912;51.376;6.126;2023-12-20T12:10:26;11.10;99.90
15625;DHT22;7912;51.376;6.126;2023-12-20T12:25:14;11.00;99.90
15625;DHT22;7912;51.376;6.126;2023-12-20T12:27:44;11.00;99.90
15625;DHT22;7912;51.376;6.126;2023-12-20T12:30:16;10.90;99.90
15625;DHT22;7912;51.376;6.126;2023-12-20T12:32:45;10.90;99.90
15625;DHT22;7912;51.376;6.126;2023-12-20T12:35:14;10.80;99.90
15625;DHT22;7912;51.376;6.126;2023-12-20T12:37:41;10.80;99.90
15625;DHT22;7912;51.376;6.126;2023-12-20T12:40:14;10.70;99.90
15625;DHT22;7912;51.376;6.126;2023-12-20T12:42:44;10.70;99.90
15625;DHT22;7912;51.376;6.126;2023-12-20T12:45:13;10.70;99.90
15625;DHT22;7912;51.376;6.126;2023-12-20T12:47:40;10.70;99.90
15625;DHT22;7912;51.376;6.126;2023-12-20T12:50:08;10.70;99.90
15625;DHT22;7912;51.376;6.126;2023-12-20T12:52:36;10.70;99.90
15625;DHT22;7912;51.376;6.126;2023-12-20T12:55:04;10.70;99.90
15625;DHT22;7912;51.376;6.126;2023-12-20T12:57:33;10.70;99.90
15625;DHT22;7912;51.376;6.126;2023-12-20T13:00:04;10.70;99.90
15625;DHT22;7912;51.376;6.126;2023-12-20T13:02:35;10.70;99.90
15625;DHT22;7912;51.376;6.126;2023-12-20T13:05:05;10.70;99.90
15625;DHT22;7912;51.376;6.126;2023-12-20T13:07:33;10.70;99.90
15625;DHT22;7912;51.376;6.126;2023-12-20T13:10:00;10.60;99.90
15625;DHT22;7912;51.376;6.126;2023-12-20T13:12:28;10.60;99.90
15625;DHT22;7912;51.376;6.126;2023-12-20T13:14:59;10.60;99.90
15625;DHT22;7912;51.376;6.126;2023-12-20T13:17:27;10.60;99.90
15625;DHT22;7912;51.376;6.126;2023-12-20T13:19:57;10.60;99.90
15625;DHT22;7912;51.376;6.126;2023-12-20T13:22:25;10.60;99.90
15625;DHT22;7912;51.376;6.126;2023-12-20T13:24:56;10.60;99.90
15625;DHT22;7912;51.376;6.126;2023-12-20T13:27:23;10.50;99.90
15625;DHT22;7912;51.376;6.126;2023-12-20T13:29:54;10.60;99.90
15625;DHT22;7912;51.376;6.126;2023-12-20T13:32:33;10.50;99.90
15625;DHT22;7912;51.376;6.126;2023-12-20T13:35:07;10.50;99.90
15625;DHT22;7912;51.376;6.126;2023-12-20T13:37:38;10.50;99.90
15625;DHT22;7912;51.376;6.126;2023-12-20T13:40:10;10.50;99.90
15625;DHT22;7912;51.376;6.126;2023-12-20T13:42:39;10.50;99.90
15625;DHT22;7912;51.376;6.126;2023-12-20T13:45:07;10.60;99.90
15625;DHT22;7912;51.376;6.126;2023-12-20T13:47:38;10.60;99.90
15625;DHT22;7912;51.376;6.126;2023-12-20T13:50:11;10.60;99.90
15625;DHT22;7912;51.376;6.126;2023-12-20T13:52:43;10.60;99.90
15625;DHT22;7912;51.376;6.126;2023-12-20T13:55:20;10.60;99.90
15625;DHT22;7912;51.376;6.126;2023-12-20T13:57:52;10.60;99.90
15625;DHT22;7912;51.376;6.126;2023-12-20T14:00:27;10.70;99.90
15625;DHT22;7912;51.376;6.126;2023-12-20T14:02:54;10.70;99.90
15625;DHT22;7912;51.376;6.126;2023-12-20T14:05:22;10.70;99.90
15625;DHT22;7912;51.376;6.126;2023-12-20T14:12:05;10.70;99.90
15625;DHT22;7912;51.376;6.126;2023-12-20T14:14:33;10.70;99.90
15625;DHT22;7912;51.376;6.126;2023-12-20T14:17:03;10.70;99.90
15625;DHT22;7912;51.376;6.126;2023-12-20T14:19:36;10.70;99.90
15625;DHT22;7912;51.376;6.126;2023-12-20T14:22:14;10.80;99.90
15625;DHT22;7912;51.376;6.126;2023-12-20T14:24:44;10.80;99.90
15625;DHT22;7912;51.376;6.126;2023-12-20T14:27:13;10.80;99.90
15625;DHT22;7912;51.376;6.126;2023-12-20T14:29:47;10.80;99.90
15625;DHT22;7912;51.376;6.126;2023-12-20T14:32:42;10.80;99.90
15625;DHT22;7912;51.376;6.126;2023-12-20T14:35:09;10.90;99.90
15625;DHT22;7912;51.376;6.126;2023-12-20T14:37:38;10.90;99.90
15625;DHT22;7912;51.376;6.126;2023-12-20T14:40:08;10.90;99.90
15625;DHT22;7912;51.376;6.126;2023-12-20T14:42:46;11.00;99.90
15625;DHT22;7912;51.376;6.126;2023-12-20T14:45:14;11.00;99.90
15625;DHT22;7912;51.376;6.126;2023-12-20T14:47:43;11.00;99.90
15625;DHT22;7912;51.376;6.126;2023-12-20T14:50:12;11.00;99.90
15625;DHT22;7912;51.376;6.126;2023-12-20T14:52:45;11.00;99.90
15625;DHT22;7912;51.376;6.126;2023-12-20T14:55:13;11.00;99.90
15625;DHT22;7912;51.376;6.126;2023-12-20T14:57:41;11.00;99.90
15625;DHT22;7912;51.376;6.126;2023-12-20T15:00:09;11.00;99.90
15625;DHT22;7912;51.376;6.126;2023-12-20T15:02:36;11.00;99.90
15625;DHT22;7912;51.376;6.126;2023-12-20T15:05:04;11.00;99.90
15625;DHT22;7912;51.376;6.126;2023-12-20T15:07:32;11.00;99.90
15625;DHT22;7912;51.376;6.126;2023-12-20T15:09:59;11.00;99.90
15625;DHT22;7912;51.376;6.126;2023-12-20T15:16:37;11.00;99.90
15625;DHT22;7912;51.376;6.126;2023-12-20T15:19:07;11.00;99.90
15625;DHT22;7912;51.376;6.126;2023-12-20T15:21:34;10.90;99.90
15625;DHT22;7912;51.376;6.126;2023-12-20T15:24:14;10.90;99.90
15625;DHT22;7912;51.376;6.126;2023-12-20T15:26:46;10.90;99.90
15625;DHT22;7912;51.376;6.126;2023-12-20T15:29:14;10.90;99.90
15625;DHT22;7912;51.376;6.126;2023-12-20T15:31:43;10.80;99.90
15625;DHT22;7912;51.376;6.126;2023-12-20T15:34:12;10.80;99.90
15625;DHT22;7912;51.376;6.126;2023-12-20T15:36:42;10.80;99.90
15625;DHT22;7912;51.376;6.126;2023-12-20T15:39:10;10.80;99.90
15625;DHT22;7912;51.376;6.126;2023-12-20T15:41:41;10.80;99.90
15625;DHT22;7912;51.376;6.126;2023-12-20T15:44:08;10.80;99.90
15625;DHT22;7912;51.376;6.126;2023-12-20T15:46:36;10.80;99.90
15625;DHT22;7912;51.376;6.126;2023-12-20T15:49:03;10.80;99.90
15625;DHT22;7912;51.376;6.126;2023-12-20T15:51:32;10.80;99.90
15625;DHT22;7912;51.376;6.126;2023-12-20T15:54:00;10.80;99.90
15625;DHT22;7912;51.376;6.126;2023-12-20T15:56:33;10.80;99.90
15625;DHT22;7912;51.376;6.126;2023-12-20T15:59:00;10.80;99.90
15625;DHT22;7912;51.376;6.126;2023-12-20T16:01:29;10.80;99.90
15625;DHT22;7912;51.376;6.126;2023-12-20T16:03:58;10.80;99.90
15625;DHT22;7912;51.376;6.126;2023-12-20T16:06:26;10.80;99.90
15625;DHT22;7912;51.376;6.126;2023-12-20T16:08:56;10.70;99.90
15625;DHT22;7912;51.376;6.126;2023-12-20T16:11:27;10.80;99.90
15625;DHT22;7912;51.376;6.126;2023-12-20T16:13:54;10.80;99.90
15625;DHT22;7912;51.376;6.126;2023-12-20T16:16:22;10.80;99.90
15625;DHT22;7912;51.376;6.126;2023-12-20T16:22:50;10.80;99.90
15625;DHT22;7912;51.376;6.126;2023-12-20T16:25:18;10.80;99.90
15625;DHT22;7912;51.376;6.126;2023-12-20T16:27:46;10.80;99.90
15625;DHT22;7912;51.376;6.126;2023-12-20T16:39:17;10.80;99.90
15625;DHT22;7912;51.376;6.126;2023-12-20T16:41:49;10.80;99.90
15625;DHT22;7912;51.376;6.126;2023-12-20T16:44:16;10.80;99.90
15625;DHT22;7912;51.376;6.126;2023-12-20T16:46:44;10.70;99.90
15625;DHT22;7912;51.376;6.126;2023-12-20T16:49:11;10.70;99.90
15625;DHT22;7912;51.376;6.126;2023-12-20T16:51:39;10.80;99.90
15625;DHT22;7912;51.376;6.126;2023-12-20T16:54:06;10.80;99.90
15625;DHT22;7912;51.376;6.126;2023-12-20T16:56:33;10.80;99.90
15625;DHT22;7912;51.376;6.126;2023-12-20T16:59:02;10.80;99.90
15625;DHT22;7912;51.376;6.126;2023-12-20T17:01:30;10.80;99.90
15625;DHT22;7912;51.376;6.126;2023-12-20T17:03:58;10.80;99.90
15625;DHT22;7912;51.376;6.126;2023-12-20T17:06:26;10.80;99.90
15625;DHT22;7912;51.376;6.126;2023-12-20T17:08:56;10.90;99.90
15625;DHT22;7912;51.376;6.126;2023-12-20T17:11:24;10.90;99.90